Time;durP1;ratioP1;P1;durP2;ratioP2;P2;SDS_P1;SDS_P2;PMS_P1;PMS_P2;Temp;Humidity;BMP_temperature;BMP_pressure;BME280_temperature;BME280_humidity;BME280_pressure;Samples;Min_cycle;Max_cycle;Signal;HPM_P1;HPM_P2
2021/11/18 00:00:50;;;;;;;38.10;22.67;;;7.10;99.90;;;;;;4899711;29;20080;-78
2021/11/18 00:03:17;;;;;;;43.20;23.67;;;7.10;99.90;;;;;;4899924;29;20079;-81
2021/11/18 00:05:43;;;;;;;40.97;22.10;;;7.20;99.90;;;;;;4902535;29;20048;-78
2021/11/18 00:08:10;;;;;;;43.53;23.27;;;7.10;99.90;;;;;;4902854;29;20044;-82
2021/11/18 00:10:45;;;;;;;39.67;21.60;;;7.10;99.90;;;;;;4901699;29;20499;-79
2021/11/18 00:13:13;;;;;;;43.63;24.27;;;7.10;99.90;;;;;;4899807;29;20119;-81
2021/11/18 00:15:41;;;;;;;40.20;22.03;;;7.10;99.90;;;;;;4899720;29;20044;-78
2021/11/18 00:18:10;;;;;;;41.13;23.27;;;7.00;99.90;;;;;;4898820;29;20374;-78
2021/11/18 00:20:42;;;;;;;46.67;25.40;;;7.00;99.90;;;;;;4899948;29;20045;-79
2021/11/18 00:23:09;;;;;;;38.73;23.10;;;7.00;99.90;;;;;;4900085;29;20112;-78
2021/11/18 00:25:34;;;;;;;43.00;22.53;;;7.10;99.90;;;;;;4882677;29;20171;-77
2021/11/18 00:28:00;;;;;;;35.90;20.97;;;7.00;99.90;;;;;;4898908;29;20066;-77
2021/11/18 00:30:27;;;;;;;40.57;21.77;;;7.00;99.90;;;;;;4898697;29;20088;-78
2021/11/18 00:32:53;;;;;;;44.93;24.67;;;7.00;99.90;;;;;;4899898;29;20041;-78
2021/11/18 00:35:22;;;;;;;40.40;22.10;;;7.00;99.90;;;;;;4898484;29;20119;-77
2021/11/18 00:37:48;;;;;;;40.43;21.70;;;7.00;99.90;;;;;;4899704;29;20040;-77
2021/11/18 00:40:18;;;;;;;36.90;20.17;;;6.90;99.90;;;;;;4898279;29;20033;-79
2021/11/18 00:42:44;;;;;;;35.10;20.90;;;6.90;99.90;;;;;;4900009;29;20033;-78
2021/11/18 00:45:12;;;;;;;38.00;20.97;;;6.90;99.90;;;;;;4898246;29;20041;-77
2021/11/18 00:47:37;;;;;;;34.83;19.87;;;6.80;99.90;;;;;;4898750;29;20096;-78
2021/11/18 00:50:06;;;;;;;39.43;20.30;;;6.80;99.90;;;;;;4883518;29;20411;-78
2021/11/18 00:52:31;;;;;;;40.20;20.70;;;6.80;99.90;;;;;;4898557;29;20040;-79
2021/11/18 00:54:57;;;;;;;39.70;20.33;;;6.80;99.90;;;;;;4882482;29;20052;-78
2021/11/18 00:57:23;;;;;;;41.57;20.20;;;6.70;99.90;;;;;;4898139;29;20624;-78
2021/11/18 00:59:49;;;;;;;40.27;20.90;;;6.70;99.90;;;;;;4898241;29;20064;-79
2021/11/18 01:02:16;;;;;;;36.00;21.30;;;6.70;99.90;;;;;;4882655;29;20037;-81
2021/11/18 01:04:43;;;;;;;36.10;19.53;;;6.70;99.90;;;;;;4899075;29;20079;-78
2021/11/18 01:07:09;;;;;;;39.00;20.87;;;6.70;99.90;;;;;;4898421;29;20049;-78
2021/11/18 01:09:35;;;;;;;38.90;19.83;;;6.70;99.90;;;;;;4899046;29;20473;-79
2021/11/18 01:12:02;;;;;;;37.30;18.93;;;6.70;99.90;;;;;;4898768;29;20039;-78
2021/11/18 01:14:28;;;;;;;36.27;18.70;;;6.70;99.90;;;;;;4898103;29;20036;-80
2021/11/18 01:16:54;;;;;;;36.67;19.13;;;6.60;99.90;;;;;;4899692;29;20057;-78
2021/11/18 01:19:20;;;;;;;34.90;19.47;;;6.60;99.90;;;;;;4898746;29;20051;-79
2021/11/18 01:21:48;;;;;;;32.77;18.17;;;6.60;99.90;;;;;;4899255;29;20423;-78
2021/11/18 01:24:14;;;;;;;34.07;17.90;;;6.60;99.90;;;;;;4883277;29;20041;-79
2021/11/18 01:26:40;;;;;;;35.90;18.33;;;6.50;99.90;;;;;;4882852;29;20041;-78
2021/11/18 01:29:06;;;;;;;36.83;18.83;;;6.50;99.90;;;;;;4898866;29;20140;-78
2021/11/18 01:31:32;;;;;;;41.33;19.83;;;6.60;99.90;;;;;;4898714;29;20055;-78
2021/11/18 01:33:59;;;;;;;40.73;18.67;;;6.60;99.90;;;;;;4882854;29;20041;-78
2021/11/18 01:36:25;;;;;;;33.73;17.47;;;6.60;99.90;;;;;;4899796;29;20044;-78
2021/11/18 01:38:51;;;;;;;34.30;17.77;;;6.60;99.90;;;;;;4898461;29;20036;-78
2021/11/18 01:41:25;;;;;;;35.80;17.53;;;6.50;99.90;;;;;;4899263;29;20069;-78
2021/11/18 01:43:57;;;;;;;35.63;17.97;;;6.50;99.90;;;;;;4898459;29;20043;-79
2021/11/18 01:46:35;;;;;;;39.17;18.20;;;6.40;99.90;;;;;;4897539;29;20040;-81
2021/11/18 01:49:03;;;;;;;34.33;17.47;;;6.40;99.90;;;;;;4899882;29;20040;-78
2021/11/18 01:51:33;;;;;;;34.10;17.20;;;6.40;99.90;;;;;;4897510;29;20044;-77
2021/11/18 01:54:01;;;;;;;37.23;18.10;;;6.40;99.90;;;;;;4898850;29;20029;-77
2021/11/18 01:56:30;;;;;;;38.30;17.93;;;6.30;99.90;;;;;;4897660;29;20533;-79
2021/11/18 01:58:59;;;;;;;32.47;17.03;;;6.30;99.90;;;;;;4897521;29;20040;-78
2021/11/18 02:01:25;;;;;;;34.07;18.03;;;6.30;99.90;;;;;;4898140;29;20096;-81
2021/11/18 02:03:51;;;;;;;35.53;16.50;;;6.20;99.90;;;;;;4898139;29;20040;-78
2021/11/18 02:06:30;;;;;;;35.63;17.87;;;6.20;99.90;;;;;;4897424;29;20051;-79
2021/11/18 02:08:56;;;;;;;33.03;16.27;;;6.20;99.90;;;;;;4897559;29;20469;-78
2021/11/18 02:11:36;;;;;;;36.43;16.90;;;6.20;99.90;;;;;;4897468;29;20143;-77
2021/11/18 02:14:03;;;;;;;35.63;17.60;;;6.20;99.90;;;;;;4898725;29;20036;-78
2021/11/18 02:16:29;;;;;;;41.23;18.73;;;6.20;99.90;;;;;;4881718;29;20065;-78
2021/11/18 02:18:55;;;;;;;37.70;18.27;;;6.20;99.90;;;;;;4897945;29;20494;-77
2021/11/18 02:21:22;;;;;;;33.27;17.37;;;6.20;99.90;;;;;;4897366;29;20045;-78
2021/11/18 02:23:51;;;;;;;35.90;17.03;;;6.20;99.90;;;;;;4897567;29;20036;-78
2021/11/18 02:26:18;;;;;;;38.67;16.77;;;6.20;99.90;;;;;;4898225;29;20044;-77
2021/11/18 02:28:46;;;;;;;41.07;17.63;;;6.20;99.90;;;;;;4897882;29;20052;-77
2021/11/18 02:31:26;;;;;;;42.80;17.87;;;6.10;99.90;;;;;;4897734;29;20128;-78
2021/11/18 02:33:52;;;;;;;38.47;18.30;;;6.10;99.90;;;;;;4899918;29;20037;-78
2021/11/18 02:36:18;;;;;;;35.67;17.20;;;6.10;99.90;;;;;;4881863;29;20135;-78
2021/11/18 02:38:45;;;;;;;44.47;17.33;;;6.10;99.90;;;;;;4881909;29;20136;-78
2021/11/18 02:41:13;;;;;;;35.33;16.73;;;6.20;99.90;;;;;;4897150;29;20049;-78
2021/11/18 02:43:39;;;;;;;36.33;17.63;;;6.30;99.90;;;;;;4897171;29;20120;-78
2021/11/18 02:46:05;;;;;;;38.87;17.13;;;6.30;99.90;;;;;;4897110;29;20036;-78
2021/11/18 02:48:32;;;;;;;41.83;18.20;;;6.30;99.90;;;;;;4897264;29;20044;-77
2021/11/18 02:51:02;;;;;;;40.27;18.10;;;6.30;99.90;;;;;;4881625;29;20040;-77
2021/11/18 02:53:30;;;;;;;38.83;17.33;;;6.30;99.90;;;;;;4898643;29;20087;-77
2021/11/18 02:55:57;;;;;;;32.90;16.40;;;6.20;99.90;;;;;;4897564;29;20044;-78
2021/11/18 02:58:23;;;;;;;40.80;17.93;;;6.20;99.90;;;;;;4897619;29;20028;-78
2021/11/18 03:01:09;;;;;;;34.63;17.93;;;6.10;99.90;;;;;;4881281;29;20032;-77
2021/11/18 03:03:35;;;;;;;39.17;17.33;;;6.10;99.90;;;;;;4896574;29;20036;-76
2021/11/18 03:06:03;;;;;;;38.70;17.20;;;6.10;99.90;;;;;;4897225;29;20462;-78
2021/11/18 03:08:30;;;;;;;31.20;16.60;;;6.10;99.90;;;;;;4898105;29;20041;-77
2021/11/18 03:10:58;;;;;;;32.80;16.57;;;6.10;99.90;;;;;;4896898;29;20044;-78
2021/11/18 03:13:27;;;;;;;33.97;17.27;;;6.10;99.90;;;;;;4898352;29;20068;-79
2021/11/18 03:15:53;;;;;;;38.43;17.10;;;6.00;99.90;;;;;;4897554;29;20099;-77
2021/11/18 03:18:22;;;;;;;34.30;16.60;;;6.00;99.90;;;;;;4880732;29;20442;-78
2021/11/18 03:20:49;;;;;;;40.20;16.60;;;6.10;99.90;;;;;;4881773;29;20049;-78
2021/11/18 03:23:15;;;;;;;40.80;17.17;;;6.00;99.90;;;;;;4897474;29;20033;-78
2021/11/18 03:25:41;;;;;;;38.00;16.27;;;6.00;99.90;;;;;;4884715;29;20542;-78
2021/11/18 03:28:08;;;;;;;34.27;16.60;;;5.90;99.90;;;;;;4900666;29;20324;-78
2021/11/18 03:30:36;;;;;;;33.97;17.20;;;5.80;99.90;;;;;;4898478;29;20096;-81
2021/11/18 03:33:07;;;;;;;38.10;17.60;;;5.80;99.90;;;;;;4897248;29;20063;-78
2021/11/18 03:35:33;;;;;;;38.10;17.50;;;5.90;99.90;;;;;;4897006;29;20108;-78
2021/11/18 03:38:00;;;;;;;35.43;16.80;;;5.80;99.90;;;;;;4899130;29;20131;-78
2021/11/18 03:40:26;;;;;;;36.20;17.37;;;5.80;99.90;;;;;;4885632;29;20041;-78
2021/11/18 03:42:54;;;;;;;37.77;17.67;;;5.80;99.90;;;;;;4900885;29;20033;-77
2021/11/18 03:45:23;;;;;;;38.20;17.57;;;5.80;99.90;;;;;;4900881;29;20051;-78
2021/11/18 03:47:48;;;;;;;31.60;16.30;;;5.80;99.90;;;;;;4900746;29;20045;-78
2021/11/18 03:50:15;;;;;;;34.03;17.07;;;5.80;99.90;;;;;;4885239;29;20060;-77
2021/11/18 03:52:41;;;;;;;30.03;16.00;;;5.70;99.90;;;;;;4900313;29;20041;-78
2021/11/18 03:55:10;;;;;;;45.83;17.20;;;5.70;99.90;;;;;;4900463;29;20055;-77
2021/11/18 03:57:36;;;;;;;33.43;16.23;;;5.70;99.90;;;;;;4900262;29;20091;-82
2021/11/18 04:00:08;;;;;;;35.80;17.03;;;5.80;99.90;;;;;;4900259;29;20032;-78
2021/11/18 04:02:34;;;;;;;33.40;16.47;;;5.80;99.90;;;;;;4899939;29;20039;-78
2021/11/18 04:05:00;;;;;;;38.17;17.00;;;5.80;99.90;;;;;;4884674;29;20044;-75
2021/11/18 04:07:27;;;;;;;37.50;16.57;;;5.90;99.90;;;;;;4900306;29;20136;-77
2021/11/18 04:09:53;;;;;;;40.17;16.57;;;5.90;99.90;;;;;;4884412;29;20390;-77
2021/11/18 04:12:19;;;;;;;38.43;16.93;;;6.00;99.90;;;;;;4902057;29;20128;-78
2021/11/18 04:14:46;;;;;;;32.10;16.60;;;6.00;99.90;;;;;;4905039;29;20507;-78
2021/11/18 04:17:13;;;;;;;37.50;16.47;;;6.00;99.90;;;;;;4891621;29;20080;-77
2021/11/18 04:19:39;;;;;;;37.30;17.37;;;6.10;99.90;;;;;;4905874;29;20044;-81
2021/11/18 04:22:06;;;;;;;32.10;15.93;;;6.10;99.90;;;;;;4890617;29;20037;-77
2021/11/18 04:24:32;;;;;;;31.50;15.80;;;6.20;99.90;;;;;;4903470;29;20089;-78
2021/11/18 04:26:59;;;;;;;30.23;16.00;;;6.20;99.90;;;;;;4902674;29;20037;-78
2021/11/18 04:29:28;;;;;;;33.77;16.13;;;6.30;99.90;;;;;;4887393;29;20496;-78
2021/11/18 04:31:58;;;;;;;35.77;15.83;;;6.30;99.90;;;;;;4885939;29;20044;-77
2021/11/18 04:34:25;;;;;;;33.67;16.50;;;6.40;99.90;;;;;;4901088;29;20037;-78
2021/11/18 04:36:51;;;;;;;34.80;15.13;;;6.40;99.90;;;;;;4900282;29;20073;-77
2021/11/18 04:39:17;;;;;;;32.40;15.23;;;6.40;99.90;;;;;;4884232;29;20037;-78
2021/11/18 04:41:43;;;;;;;35.53;15.93;;;6.40;99.90;;;;;;4884746;29;20041;-80
2021/11/18 04:44:09;;;;;;;33.83;16.47;;;6.50;99.90;;;;;;4883803;29;20147;-78
2021/11/18 04:46:35;;;;;;;38.53;15.73;;;6.50;99.90;;;;;;4884448;29;20041;-77
2021/11/18 04:49:02;;;;;;;38.83;16.17;;;6.50;99.90;;;;;;4899001;29;20119;-76
2021/11/18 04:51:29;;;;;;;34.67;15.57;;;6.50;99.90;;;;;;4899113;29;20036;-78
2021/11/18 04:53:55;;;;;;;36.80;15.90;;;6.50;99.90;;;;;;4899522;29;20192;-78
2021/11/18 04:56:22;;;;;;;29.10;15.80;;;6.60;99.90;;;;;;4899715;29;20131;-78
2021/11/18 04:58:48;;;;;;;31.50;16.23;;;6.60;99.90;;;;;;4898148;29;20549;-78
2021/11/18 05:01:15;;;;;;;33.43;15.77;;;6.60;99.90;;;;;;4899003;29;20040;-78
2021/11/18 05:03:42;;;;;;;33.03;15.37;;;6.70;99.90;;;;;;4883696;29;20037;-78
2021/11/18 05:06:09;;;;;;;30.77;15.70;;;6.70;99.90;;;;;;4883705;29;20055;-77
2021/11/18 05:08:34;;;;;;;31.50;16.27;;;6.70;99.90;;;;;;4900035;29;20092;-77
2021/11/18 05:11:01;;;;;;;33.33;16.30;;;6.70;99.90;;;;;;4898346;29;20036;-77
2021/11/18 05:13:29;;;;;;;32.87;16.73;;;6.70;99.90;;;;;;4898477;29;20100;-76
2021/11/18 05:15:56;;;;;;;32.23;15.97;;;6.70;99.90;;;;;;4898277;29;20040;-78
2021/11/18 05:18:22;;;;;;;31.73;15.80;;;6.80;99.90;;;;;;4898593;29;20064;-78
2021/11/18 05:20:48;;;;;;;29.37;15.50;;;6.70;99.90;;;;;;4898530;29;20081;-80
2021/11/18 05:23:16;;;;;;;32.00;15.60;;;6.80;99.90;;;;;;4882885;29;20036;-78
2021/11/18 05:25:43;;;;;;;31.20;16.70;;;6.80;99.90;;;;;;4898172;29;20112;-78
2021/11/18 05:28:09;;;;;;;31.90;16.50;;;6.70;99.90;;;;;;4899396;29;20095;-77
2021/11/18 05:30:35;;;;;;;32.73;16.67;;;6.80;99.90;;;;;;4898567;29;20478;-78
2021/11/18 05:33:06;;;;;;;36.73;16.90;;;6.80;99.90;;;;;;4899927;29;20041;-78
2021/11/18 05:35:33;;;;;;;37.37;17.03;;;6.70;99.90;;;;;;4898602;29;20047;-78
2021/11/18 05:38:00;;;;;;;33.60;16.40;;;6.70;99.90;;;;;;4883497;29;20067;-77
2021/11/18 05:40:27;;;;;;;31.60;16.47;;;6.70;99.90;;;;;;4898657;29;20036;-77
2021/11/18 05:42:53;;;;;;;35.87;16.47;;;6.70;99.90;;;;;;4898634;29;20545;-79
2021/11/18 05:45:23;;;;;;;42.60;17.60;;;6.80;99.90;;;;;;4898987;29;20452;-78
2021/11/18 05:47:49;;;;;;;36.80;16.27;;;6.80;99.90;;;;;;4899009;29;20036;-80
2021/11/18 05:50:16;;;;;;;35.60;17.50;;;6.80;99.90;;;;;;4883195;29;20041;-78
2021/11/18 05:52:43;;;;;;;33.83;17.47;;;6.80;99.90;;;;;;4897997;29;20037;-78
2021/11/18 05:55:12;;;;;;;32.50;17.20;;;6.70;99.90;;;;;;4882810;29;20041;-77
2021/11/18 05:57:37;;;;;;;34.13;18.30;;;6.80;99.90;;;;;;4898656;29;20056;-77
2021/11/18 06:00:10;;;;;;;35.50;18.77;;;6.80;99.90;;;;;;4898753;29;20040;-78
2021/11/18 06:02:35;;;;;;;34.70;18.38;;;6.70;99.90;;;;;;4899120;29;20160;-78
2021/11/18 06:05:01;;;;;;;39.77;19.83;;;6.70;99.90;;;;;;4897689;29;20139;-78
2021/11/18 06:07:27;;;;;;;43.07;19.77;;;6.70;99.90;;;;;;4898034;29;20051;-78
2021/11/18 06:09:53;;;;;;;36.77;18.93;;;6.70;99.90;;;;;;4898626;29;20044;-79
2021/11/18 06:12:19;;;;;;;33.73;17.87;;;6.70;99.90;;;;;;4881702;29;20485;-79
2021/11/18 06:14:45;;;;;;;35.47;18.60;;;6.70;99.90;;;;;;4881821;29;20040;-78
2021/11/18 06:17:10;;;;;;;37.67;19.13;;;6.70;99.90;;;;;;4897250;29;20059;-77
2021/11/18 06:19:36;;;;;;;37.33;18.70;;;6.80;99.90;;;;;;4897701;29;20478;-78
2021/11/18 06:22:03;;;;;;;37.77;17.90;;;6.80;99.90;;;;;;4881605;29;20041;-79
2021/11/18 06:24:29;;;;;;;41.97;18.20;;;6.80;99.90;;;;;;4897396;29;20396;-78
2021/11/18 06:26:56;;;;;;;40.23;18.00;;;6.70;99.90;;;;;;4898814;29;20045;-81
2021/11/18 06:29:23;;;;;;;41.77;18.30;;;6.80;99.90;;;;;;4898291;29;20033;-76
2021/11/18 06:31:54;;;;;;;35.43;17.27;;;6.80;99.90;;;;;;4898049;29;20101;-78
2021/11/18 06:34:20;;;;;;;40.30;19.07;;;6.80;99.90;;;;;;4897499;29;20060;-77
2021/11/18 06:36:46;;;;;;;36.07;17.73;;;6.90;99.90;;;;;;4898774;29;20127;-77
2021/11/18 06:39:13;;;;;;;46.63;19.63;;;6.90;99.90;;;;;;4899046;29;20076;-78
2021/11/18 06:41:40;;;;;;;38.77;18.40;;;6.90;99.90;;;;;;4898081;29;20162;-78
2021/11/18 06:44:06;;;;;;;32.80;18.03;;;7.00;99.90;;;;;;4898019;29;20041;-79
2021/11/18 06:46:31;;;;;;;34.00;17.20;;;7.00;99.90;;;;;;4884348;29;20131;-78
2021/11/18 06:48:58;;;;;;;41.83;17.90;;;7.10;99.90;;;;;;4884586;29;20044;-82
2021/11/18 06:51:25;;;;;;;35.57;17.43;;;7.10;99.90;;;;;;4900005;29;20037;-79
2021/11/18 06:53:52;;;;;;;35.97;18.40;;;7.10;99.90;;;;;;4885436;29;20496;-77
2021/11/18 06:56:20;;;;;;;36.33;17.30;;;7.20;99.90;;;;;;4900684;29;20033;-77
2021/11/18 06:58:46;;;;;;;35.90;17.17;;;7.20;99.90;;;;;;4903378;29;20112;-78
2021/11/18 07:01:12;;;;;;;35.93;16.70;;;7.30;99.90;;;;;;4885542;29;20080;-78
2021/11/18 07:03:39;;;;;;;40.60;17.40;;;7.40;99.90;;;;;;4883464;29;20047;-79
2021/11/18 07:06:06;;;;;;;36.37;17.37;;;7.40;99.90;;;;;;4885103;29;20135;-78
2021/11/18 07:08:34;;;;;;;33.90;16.30;;;7.40;99.90;;;;;;4885940;29;20041;-78
2021/11/18 07:10:59;;;;;;;33.57;16.37;;;7.50;99.90;;;;;;4900089;29;20029;-80
2021/11/18 07:13:27;;;;;;;40.43;16.43;;;7.50;99.90;;;;;;4909997;29;20044;-82
2021/11/18 07:15:53;;;;;;;37.27;15.47;;;7.50;99.90;;;;;;4918054;29;20037;-78
2021/11/18 07:18:23;;;;;;;36.67;16.67;;;7.50;99.90;;;;;;4901165;29;20049;-78
2021/11/18 07:20:50;;;;;;;37.37;16.60;;;7.40;99.90;;;;;;4900174;29;20033;-79
2021/11/18 07:23:16;;;;;;;39.23;17.07;;;7.50;99.90;;;;;;4900465;29;20108;-80
2021/11/18 07:25:44;;;;;;;36.27;16.77;;;7.50;99.90;;;;;;4915910;29;20068;-78
2021/11/18 07:28:10;;;;;;;36.80;16.90;;;7.50;99.90;;;;;;4898547;29;20108;-79
2021/11/18 07:30:36;;;;;;;42.47;16.97;;;7.60;99.90;;;;;;4910500;29;20033;-77
2021/11/18 07:33:02;;;;;;;40.30;17.43;;;7.60;99.90;;;;;;4908849;29;20537;-82
2021/11/18 07:35:28;;;;;;;36.57;16.33;;;7.60;99.90;;;;;;4903551;29;20044;-77
2021/11/18 07:37:55;;;;;;;46.30;17.23;;;7.70;99.90;;;;;;4900369;29;20381;-77
2021/11/18 07:40:22;;;;;;;36.93;15.50;;;7.70;99.90;;;;;;4884116;29;20033;-78
2021/11/18 07:42:49;;;;;;;33.87;16.17;;;7.70;99.90;;;;;;4900042;29;20036;-77
2021/11/18 07:45:17;;;;;;;35.67;16.13;;;7.80;99.90;;;;;;4900797;29;20044;-78
2021/11/18 07:47:43;;;;;;;35.67;15.00;;;7.80;99.90;;;;;;4884373;29;20051;-78
2021/11/18 07:50:10;;;;;;;39.30;15.53;;;7.90;99.90;;;;;;4884399;29;20036;-79
2021/11/18 07:52:36;;;;;;;37.50;15.70;;;7.80;99.90;;;;;;4900371;29;20048;-79
2021/11/18 07:55:05;;;;;;;39.57;16.50;;;7.90;99.90;;;;;;4900178;29;20036;-79
2021/11/18 07:57:31;;;;;;;41.77;15.80;;;7.90;99.90;;;;;;4901195;29;20032;-79
2021/11/18 07:59:56;;;;;;;37.13;15.43;;;7.90;99.90;;;;;;4884619;29;20128;-81
2021/11/18 08:02:22;;;;;;;34.83;14.73;;;7.90;99.90;;;;;;4885514;29;20116;-80
2021/11/18 08:04:48;;;;;;;44.20;16.33;;;7.90;99.90;;;;;;4900324;29;20045;-79
2021/11/18 08:07:14;;;;;;;34.50;15.77;;;8.00;99.90;;;;;;4900205;29;20029;-80
2021/11/18 08:09:39;;;;;;;40.00;15.57;;;8.00;99.90;;;;;;4884492;29;20131;-79
2021/11/18 08:12:07;;;;;;;35.97;15.03;;;8.00;99.90;;;;;;4900047;29;20104;-81
2021/11/18 08:14:33;;;;;;;37.27;14.93;;;8.00;99.90;;;;;;4900143;29;20068;-79
2021/11/18 08:16:59;;;;;;;37.10;15.40;;;8.10;99.90;;;;;;4883787;29;20108;-79
2021/11/18 08:19:26;;;;;;;33.93;15.10;;;8.10;99.90;;;;;;4884351;29;20075;-79
2021/11/18 08:21:53;;;;;;;34.57;15.87;;;8.10;99.90;;;;;;4899911;29;20489;-80
2021/11/18 08:24:22;;;;;;;42.90;17.07;;;8.20;99.90;;;;;;4883050;29;20083;-80
2021/11/18 08:26:49;;;;;;;46.03;18.27;;;8.20;99.90;;;;;;4899113;29;20405;-78
2021/11/18 08:29:17;;;;;;;38.87;17.67;;;8.30;99.90;;;;;;4898963;29;20040;-77
2021/11/18 08:31:45;;;;;;;44.73;17.53;;;8.40;99.90;;;;;;4899547;29;20033;-78
2021/11/18 08:34:11;;;;;;;42.73;18.20;;;8.50;99.90;;;;;;4899918;29;20466;-81
2021/11/18 08:36:37;;;;;;;46.00;17.83;;;8.70;99.90;;;;;;4899515;29;20052;-79
2021/11/18 08:39:10;;;;;;;37.33;17.67;;;8.80;99.90;;;;;;4901153;29;20063;-79
2021/11/18 08:41:36;;;;;;;38.58;17.75;;;8.90;99.90;;;;;;4884842;29;20048;-79
2021/11/18 08:44:03;;;;;;;45.87;19.67;;;9.10;99.90;;;;;;4884480;29;20040;-80
2021/11/18 08:46:29;;;;;;;42.93;19.73;;;9.30;99.90;;;;;;4900506;29;20048;-80
2021/11/18 08:49:00;;;;;;;45.27;17.43;;;9.50;99.50;;;;;;4884655;29;20037;-80
2021/11/18 08:51:27;;;;;;;37.77;17.00;;;9.50;99.00;;;;;;4902292;29;20045;-79
2021/11/18 08:53:55;;;;;;;40.87;17.77;;;9.70;98.90;;;;;;4904331;29;20033;-79
2021/11/18 08:56:22;;;;;;;43.97;18.03;;;9.80;98.40;;;;;;4913516;29;20051;-79
2021/11/18 08:58:54;;;;;;;35.50;17.23;;;9.90;98.00;;;;;;4917375;29;20044;-80
2021/11/18 09:01:46;;;;;;;43.63;17.87;;;9.90;97.50;;;;;;4915448;29;20105;-78
2021/11/18 09:04:16;;;;;;;39.70;18.33;;;9.90;97.60;;;;;;4917162;29;20052;-80
2021/11/18 09:06:43;;;;;;;43.30;17.43;;;9.80;97.50;;;;;;4919122;29;20056;-80
2021/11/18 09:09:11;;;;;;;44.80;21.70;;;9.80;97.40;;;;;;4918485;29;20043;-79
2021/11/18 09:11:38;;;;;;;49.90;22.10;;;9.80;97.60;;;;;;4914814;29;20104;-79
2021/11/18 09:14:04;;;;;;;45.70;20.07;;;9.80;97.60;;;;;;4901431;29;20386;-79
2021/11/18 09:16:32;;;;;;;44.87;19.80;;;9.80;97.50;;;;;;4900511;29;20069;-79
2021/11/18 09:18:58;;;;;;;44.67;19.77;;;9.80;97.40;;;;;;4900141;29;20024;-79
2021/11/18 09:21:26;;;;;;;44.03;18.80;;;9.80;97.40;;;;;;4899802;29;20434;-79
2021/11/18 09:24:05;;;;;;;45.67;19.13;;;9.70;97.20;;;;;;4903487;29;20373;-80
2021/11/18 09:26:33;;;;;;;41.47;17.40;;;9.90;97.50;;;;;;4899775;29;20045;-80
2021/11/18 09:28:59;;;;;;;45.90;23.27;;;10.30;97.50;;;;;;4900754;29;20037;-82
2021/11/18 09:31:26;;;;;;;41.87;19.23;;;10.80;97.10;;;;;;4883749;29;20048;-80
2021/11/18 09:33:53;;;;;;;38.57;18.87;;;11.20;96.30;;;;;;4898926;29;20036;-81
2021/11/18 09:36:21;;;;;;;44.07;16.70;;;11.70;95.40;;;;;;4898129;29;20048;-82
2021/11/18 09:38:51;;;;;;;41.73;20.87;;;11.90;94.20;;;;;;4898620;29;20473;-81
2021/11/18 09:41:26;;;;;;;42.37;18.27;;;12.20;93.70;;;;;;4897969;29;20044;-81
2021/11/18 09:43:55;;;;;;;37.90;17.97;;;12.30;92.40;;;;;;4898252;29;20043;-81
2021/11/18 09:46:48;;;;;;;36.80;14.48;;;12.60;92.10;;;;;;4897631;29;20049;-79
2021/11/18 09:49:27;;;;;;;;;;;12.80;90.40;;;;;;4899506;29;20048;-81
2021/11/18 09:52:16;;;;;;;35.03;16.73;;;13.00;90.30;;;;;;4899202;29;20305;-80
2021/11/18 09:54:58;;;;;;;30.80;14.27;;;13.40;89.80;;;;;;4881935;29;20045;-80
2021/11/18 09:58:01;;;;;;;36.40;16.40;;;13.40;87.60;;;;;;4897664;29;20067;-81
2021/11/18 10:00:42;;;;;;;29.38;14.13;;;13.50;87.00;;;;;;4897848;29;20043;-80
2021/11/18 10:03:17;;;;;;;28.52;13.27;;;13.80;86.70;;;;;;4898102;29;20040;-80
2021/11/18 10:05:49;;;;;;;33.78;13.80;;;14.20;86.00;;;;;;4897684;29;20037;-80
2021/11/18 10:08:19;;;;;;;27.13;13.43;;;14.50;83.10;;;;;;4901892;29;20048;-82
2021/11/18 10:10:51;;;;;;;26.55;13.25;;;14.50;81.80;;;;;;4901090;29;20109;-80
2021/11/18 10:13:41;;;;;;;29.73;13.00;;;14.70;81.70;;;;;;4898211;29;20163;-79
2021/11/18 10:16:23;;;;;;;24.83;12.48;;;14.60;79.80;;;;;;4898204;29;20119;-79
2021/11/18 10:18:55;;;;;;;27.30;12.65;;;14.70;80.60;;;;;;4899955;29;20132;-79
2021/11/18 10:21:33;;;;;;;27.92;11.35;;;14.90;79.50;;;;;;4900958;29;20382;-80
2021/11/18 10:24:10;;;;;;;28.33;11.40;;;15.10;78.20;;;;;;4898445;29;20147;-78
2021/11/18 10:26:42;;;;;;;28.52;11.65;;;15.30;77.50;;;;;;4898519;29;20036;-79
2021/11/18 10:29:24;;;;;;;26.40;12.30;;;15.60;76.50;;;;;;4898470;29;20040;-78
2021/11/18 10:32:23;;;;;;;26.10;10.57;;;15.80;76.60;;;;;;4897409;29;20039;-78
2021/11/18 10:35:15;;;;;;;27.42;11.02;;;16.10;75.40;;;;;;4889228;29;20036;-79
2021/11/18 10:37:45;;;;;;;24.60;9.73;;;16.10;73.20;;;;;;4872109;29;20473;-78
2021/11/18 10:40:25;;;;;;;21.38;9.82;;;16.10;74.40;;;;;;4897377;29;20060;-78
2021/11/18 10:43:03;;;;;;;24.10;10.80;;;16.30;74.10;;;;;;4897167;29;20036;-78
2021/11/18 10:46:06;;;;;;;21.80;9.73;;;16.50;73.80;;;;;;4897364;29;20044;-79
2021/11/18 10:48:36;;;;;;;24.52;9.05;;;16.70;72.60;;;;;;4888942;29;20047;-78
2021/11/18 10:51:05;;;;;;;19.58;8.57;;;16.70;72.00;;;;;;4901816;29;20037;-78
2021/11/18 10:53:55;;;;;;;24.63;9.00;;;16.80;70.90;;;;;;4903281;29;20098;-80
2021/11/18 10:56:24;;;;;;;26.45;8.25;;;16.80;71.60;;;;;;4901787;29;20135;-79
2021/11/18 10:59:13;;;;;;;21.40;8.70;;;16.90;70.60;;;;;;4902132;29;20075;-78
2021/11/18 11:01:44;;;;;;;20.20;8.88;;;17.00;70.00;;;;;;4904156;29;20040;-77
2021/11/18 11:04:31;;;;;;;20.27;8.52;;;17.10;70.00;;;;;;4904273;29;20032;-77
2021/11/18 11:06:58;;;;;;;20.88;8.02;;;17.10;69.90;;;;;;4903444;29;20136;-79
2021/11/18 11:09:33;;;;;;;19.60;7.75;;;17.10;69.70;;;;;;4902052;29;20029;-76
2021/11/18 11:12:28;;;;;;;21.83;8.15;;;17.00;70.00;;;;;;4902282;29;20504;-77
2021/11/18 11:15:11;;;;;;;21.00;7.80;;;17.00;69.20;;;;;;4907791;29;20037;-78
2021/11/18 11:17:43;;;;;;;19.67;7.43;;;17.00;69.60;;;;;;4906670;29;20063;-78
2021/11/18 11:20:49;;;;;;;18.42;7.55;;;16.90;69.00;;;;;;4904488;29;20068;-76
2021/11/18 11:23:47;;;;;;;19.95;7.45;;;16.80;69.10;;;;;;4908019;29;20039;-77
2021/11/18 11:26:31;;;;;;;19.02;7.45;;;16.60;69.40;;;;;;4903457;29;20101;-77
2021/11/18 11:29:13;;;;;;;19.88;6.90;;;16.40;70.40;;;;;;4901537;29;20068;-77
2021/11/18 11:32:03;;;;;;;20.10;7.90;;;16.20;70.90;;;;;;4900249;29;20044;-77
2021/11/18 11:35:16;;;;;;;25.15;7.38;;;16.10;71.10;;;;;;4900407;29;20048;-77
2021/11/18 11:38:03;;;;;;;18.73;7.07;;;15.80;70.80;;;;;;4900590;29;20044;-76
2021/11/18 11:40:55;;;;;;;22.33;7.30;;;15.60;72.20;;;;;;4901413;29;20044;-76
2021/11/18 11:43:53;;;;;;;20.38;6.70;;;15.40;71.90;;;;;;4900103;29;20125;-76
2021/11/18 11:46:49;;;;;;;18.88;6.25;;;15.10;72.90;;;;;;4900203;29;20032;-77
2021/11/18 11:49:17;;;;;;;19.65;6.78;;;14.90;73.80;;;;;;4899852;29;20032;-76
2021/11/18 11:52:00;;;;;;;22.70;7.07;;;14.80;74.10;;;;;;4900729;29;20115;-77
2021/11/18 11:54:34;;;;;;;19.13;6.53;;;14.70;74.60;;;;;;4901048;29;20044;-76
2021/11/18 11:57:19;;;;;;;20.48;6.97;;;14.50;75.10;;;;;;4903821;29;20051;-76
2021/11/18 11:59:53;;;;;;;20.45;6.40;;;14.50;75.40;;;;;;4901968;29;20037;-78
2021/11/18 12:02:25;;;;;;;19.08;6.00;;;14.30;75.50;;;;;;4899815;29;20037;-77
2021/11/18 12:05:02;;;;;;;23.00;6.07;;;14.20;75.50;;;;;;4899481;29;20040;-77
2021/11/18 12:07:31;;;;;;;17.27;5.43;;;14.10;75.70;;;;;;4899136;29;20040;-78
2021/11/18 12:09:57;;;;;;;18.83;6.20;;;14.00;76.40;;;;;;4901186;29;20088;-77
2021/11/18 12:13:01;;;;;;;20.45;5.63;;;14.00;77.20;;;;;;4899637;29;20040;-76
2021/11/18 12:15:27;;;;;;;18.88;5.28;;;14.00;77.50;;;;;;4866690;29;20048;-76
2021/11/18 12:18:08;;;;;;;20.55;5.95;;;14.00;77.30;;;;;;4899502;29;20136;-77
2021/11/18 12:20:36;;;;;;;15.52;5.53;;;14.00;77.50;;;;;;4900602;29;20036;-76
2021/11/18 12:23:06;;;;;;;20.60;5.47;;;13.80;78.00;;;;;;4899238;29;20048;-76
2021/11/18 12:26:03;;;;;;;19.20;5.47;;;13.60;78.00;;;;;;4900379;29;20080;-76
2021/11/18 12:28:34;;;;;;;17.10;5.07;;;13.50;78.80;;;;;;4900915;29;20050;-76
2021/11/18 12:31:03;;;;;;;22.20;5.80;;;13.30;79.40;;;;;;4899601;29;20037;-78
2021/11/18 12:33:30;;;;;;;22.38;5.40;;;13.30;80.00;;;;;;4899563;29;20036;-76
2021/11/18 12:36:17;;;;;;;18.13;4.78;;;13.20;80.50;;;;;;4898996;29;20052;-78
2021/11/18 12:38:56;;;;;;;18.10;5.00;;;13.20;80.90;;;;;;4899999;29;20537;-77
2021/11/18 12:41:44;;;;;;;15.30;4.43;;;13.10;81.30;;;;;;4898900;29;20396;-77
2021/11/18 12:44:24;;;;;;;22.35;5.43;;;13.10;81.10;;;;;;4898721;29;20040;-77
2021/11/18 12:47:12;;;;;;;21.33;5.25;;;13.00;81.60;;;;;;4898573;29;20042;-76
2021/11/18 12:49:44;;;;;;;18.98;5.65;;;12.90;82.20;;;;;;4930681;29;20032;-79
2021/11/18 12:52:30;;;;;;;20.92;5.25;;;12.80;82.50;;;;;;4899457;29;20123;-78